Berit — ZDHX2 — position and weather

sailwx.info

Track history (hours):
 
Tides and Currents Weather Stations Pressure Air Temp Water Temp Dewpoint Dewpoint Depression Visibility Wind Speed Wind Dir Waves Ship Positions

Berit

Last reported at 2016-Feb-06 03:26 UTC. Time now 2016-Feb-09 11:42 UTC.
Position N 55°36' E 015°19'.

Length 83 m; draft 4.5 m.

Type: Cargo ship. MMSI: 236386000.

Date/timePositionNaut miles runAvg speedWind from/ knotsBaromVisibWave heightAir tempDewpointWater temp
2016-Feb-06 03:26N 55°36' E 015°19'9 9.7
2016-Feb-06 02:33N 55°32' E 015°06'10 9.9
2016-Feb-06 01:33N 55°27' E 014°50'10 9.7
2016-Feb-06 00:33N 55°21' E 014°36'10 9.8
2016-Feb-05 23:33N 55°14' E 014°26'1010.1
2016-Feb-05 22:33N 55°06' E 014°15'10 9.7
2016-Feb-05 21:33N 55°00' E 014°01'48 9.5
2016-Feb-05 16:33N 54°44' E 012°43'10 9.6
2016-Feb-05 15:33N 54°39' E 012°29'10 9.5
2016-Feb-05 14:32N 54°32' E 012°17'9 9.1
2016-Feb-05 13:32N 54°25' E 012°08'1010.0
2016-Feb-05 12:33N 54°25' E 011°51'10 9.7
2016-Feb-05 11:33N 54°28' E 011°35'1010.2
2016-Feb-05 10:33N 54°32' E 011°19'10 9.9
2016-Feb-05 09:33N 54°35' E 011°03'30 9.8
2016-Feb-05 06:33N 54°26' E 010°15'6 5.7
2016-Feb-05 05:33N 54°22' E 010°09'3 2.9
2016-Feb-05 04:33N 54°22' E 010°04'7 6.5
2016-Feb-05 03:33N 54°22' E 009°52'8 7.7
2016-Feb-05 02:33N 54°18' E 009°41'27 6.7
2016-Feb-04 22:33N 53°56' E 009°13'5 4.7
2016-Feb-04 21:33N 53°53' E 009°07'8 8.5
2016-Feb-04 20:33N 53°50' E 008°54'1110.5
2016-Feb-04 19:33N 53°56' E 008°39'1111.5
2016-Feb-04 18:33N 53°59' E 008°20'1110.9
2016-Feb-04 17:33N 53°58' E 008°02'1111.1
2016-Feb-04 16:33N 53°55' E 007°43'1110.7
2016-Feb-04 15:33N 53°53' E 007°26'1010.1
2016-Feb-04 14:33N 53°51' E 007°09'1010.0
2016-Feb-04 13:33N 53°49' E 006°53'9 9.5
2016-Feb-04 12:33N 53°46' E 006°37'9 9.1
2016-Feb-04 11:33N 53°44' E 006°22'9 8.9
2016-Feb-04 10:33N 53°41' E 006°08'9 8.8
2016-Feb-04 09:33N 53°39' E 005°54'9 8.8
2016-Feb-04 08:33N 53°36' E 005°40'9 9.2
2016-Feb-04 07:33N 53°33' E 005°25'9 8.9
2016-Feb-04 06:33N 53°30' E 005°11'42 8.4
2016-Feb-04 01:30N 52°59' E 004°22'9 9.2
2016-Feb-04 00:33N 52°51' E 004°16'10 9.6
2016-Feb-03 23:33N 52°44' E 004°07'10 9.6
2016-Feb-03 22:33N 52°35' E 003°59'17 8.7
2016-Feb-03 20:33N 52°18' E 003°52'7 7.4
2016-Feb-03 19:33N 52°11' E 003°54'7 7.5
2016-Feb-03 18:33N 52°04' E 003°55'5 4.8
2016-Feb-03 17:34N 52°00' E 004°01'1010.2
2016-Feb-03 16:34N 51°55' E 004°15'8 7.4
2016-Feb-03 15:31N 51°53' E 004°27'0 0.0
2016-Feb-03 14:31N 51°53' E 004°27'0 0.0
2016-Feb-03 13:31N 51°53' E 004°27'0 0.0
2016-Feb-03 12:31N 51°53' E 004°27'0 0.0
2016-Feb-03 11:31N 51°53' E 004°27'0 0.0
2016-Feb-03 10:31N 51°53' E 004°27'0 0.0
2016-Feb-03 09:31N 51°53' E 004°27'0 0.0
2016-Feb-03 08:31N 51°53' E 004°27'0 0.0
2016-Feb-03 07:31N 51°53' E 004°27'0 0.0
2016-Feb-03 06:31N 51°53' E 004°27'0 0.0
2016-Feb-03 05:31N 51°53' E 004°27'0 0.0
2016-Feb-03 04:31N 51°53' E 004°27'0 0.0
2016-Feb-03 03:31N 51°53' E 004°27'0 0.0
2016-Feb-03 02:31N 51°53' E 004°27'0 0.0
2016-Feb-03 01:31N 51°53' E 004°27'0 0.0
2016-Feb-03 00:31N 51°53' E 004°27'0 0.0
2016-Feb-02 23:31N 51°53' E 004°27'0 0.0
2016-Feb-02 22:31N 51°53' E 004°27'0 0.0
2016-Feb-02 21:31N 51°53' E 004°27'0 0.0
2016-Feb-02 20:31N 51°53' E 004°27'0 0.0
2016-Feb-02 19:31N 51°53' E 004°27'0 0.0
2016-Feb-02 18:28N 51°53' E 004°27'0 0.0
2016-Feb-02 17:31N 51°53' E 004°27'0 0.0
2016-Feb-02 16:31N 51°53' E 004°27'0 0.0
2016-Feb-02 15:28N 51°53' E 004°27'0 0.0
2016-Feb-02 14:31N 51°53' E 004°27'0 0.0
2016-Feb-02 13:31N 51°53' E 004°27'0 0.0
2016-Feb-02 12:31N 51°53' E 004°27'0 0.0
2016-Feb-02 11:31N 51°53' E 004°27'0 0.0
2016-Feb-02 10:31N 51°53' E 004°27'0 0.0
2016-Feb-02 09:31N 51°53' E 004°27'0 0.0
2016-Feb-02 08:31N 51°53' E 004°27'0 0.0
2016-Feb-02 07:31N 51°53' E 004°27'0 0.0
2016-Feb-02 06:28N 51°53' E 004°27'1 0.9
2016-Feb-02 05:33N 51°54' E 004°26'1 1.2
2016-Feb-02 04:33N 51°54' E 004°28'0 0.0
2016-Feb-02 03:33N 51°54' E 004°28'0 0.0
2016-Feb-02 02:33N 51°54' E 004°28'0 0.0
2016-Feb-02 01:33N 51°54' E 004°28'0 0.0
2016-Feb-02 00:33N 51°54' E 004°28'0 0.0
2016-Feb-01 23:33N 51°54' E 004°28'0 0.0
2016-Feb-01 22:33N 51°54' E 004°28'0 0.0
2016-Feb-01 21:33N 51°54' E 004°28'0 0.0
2016-Feb-01 20:30N 51°54' E 004°28'0 0.0
2016-Feb-01 19:33N 51°54' E 004°28'0 0.0
2016-Feb-01 18:33N 51°54' E 004°28'0 0.0
2016-Feb-01 17:33N 51°54' E 004°28'0 0.0
2016-Feb-01 16:33N 51°54' E 004°28'0 0.0
2016-Feb-01 15:33N 51°54' E 004°28'0 0.0
2016-Feb-01 14:33N 51°54' E 004°28'0 0.0
2016-Feb-01 13:33N 51°54' E 004°28'0 0.0
2016-Feb-01 12:33N 51°54' E 004°28'0 0.0
2016-Feb-01 11:33N 51°54' E 004°28'0 0.0
2016-Feb-01 10:13N 51°54' E 004°28'0 0.0
2016-Feb-01 09:31N 51°54' E 004°28'0 0.0
2016-Feb-01 08:31N 51°54' E 004°28'0 0.0
2016-Feb-01 07:28N 51°54' E 004°28'0 0.0
2016-Feb-01 06:31N 51°54' E 004°28'0 0.0
2016-Feb-01 05:31N 51°54' E 004°28'0 0.0
2016-Feb-01 04:31N 51°54' E 004°28'0 0.0
2016-Feb-01 03:31N 51°54' E 004°28'0 0.0
2016-Feb-01 02:31N 51°54' E 004°28'0 0.0
2016-Feb-01 01:31N 51°54' E 004°28'0 0.0
2016-Feb-01 00:31N 51°54' E 004°28'0 0.0
2016-Jan-31 23:31N 51°54' E 004°28'0 0.0
2016-Jan-31 22:31N 51°54' E 004°28'0 0.0
2016-Jan-31 21:31N 51°54' E 004°28'0 0.0
2016-Jan-31 20:31N 51°54' E 004°28'0 0.0
2016-Jan-31 19:31N 51°54' E 004°28'0 0.0
2016-Jan-31 18:31N 51°54' E 004°28'0 0.0
2016-Jan-31 17:31N 51°54' E 004°28'0 0.0
2016-Jan-31 16:31N 51°54' E 004°28'0 0.0
2016-Jan-31 15:31N 51°54' E 004°28'0 0.0
2016-Jan-31 14:31N 51°54' E 004°28'0 0.0
2016-Jan-31 13:31N 51°54' E 004°28'0 0.0
2016-Jan-31 12:28N 51°54' E 004°28'0 0.0
2016-Jan-31 11:31N 51°54' E 004°28'0 0.0
2016-Jan-31 10:31N 51°54' E 004°28'0 0.0
2016-Jan-31 09:31N 51°54' E 004°28'0 0.0
2016-Jan-31 08:31N 51°54' E 004°28'0 0.0
2016-Jan-31 07:31N 51°54' E 004°28'0 0.0
2016-Jan-31 06:31N 51°54' E 004°28'0 0.0
2016-Jan-31 05:31N 51°54' E 004°28'0 0.0
2016-Jan-31 04:31N 51°54' E 004°28'0 0.0
2016-Jan-31 03:31N 51°54' E 004°28'0 0.0
2016-Jan-31 02:31N 51°54' E 004°28'0 0.0
2016-Jan-31 01:31N 51°54' E 004°28'0 0.0
2016-Jan-31 00:31N 51°54' E 004°28'0 0.0
2016-Jan-30 23:31N 51°54' E 004°28'0 0.0
2016-Jan-30 22:31N 51°54' E 004°28'0 0.0
2016-Jan-30 21:31N 51°54' E 004°28'0 0.0
2016-Jan-30 20:31N 51°54' E 004°28'0 0.0
2016-Jan-30 19:31N 51°54' E 004°28'0 0.0
2016-Jan-30 18:31N 51°54' E 004°28'0 0.0
2016-Jan-30 17:31N 51°54' E 004°28'0 0.0
2016-Jan-30 16:31N 51°54' E 004°28'0 0.0
2016-Jan-30 15:31N 51°54' E 004°28'0 0.0
2016-Jan-30 14:31N 51°54' E 004°28'0 0.0
2016-Jan-30 13:31N 51°54' E 004°28'0 0.0
2016-Jan-30 12:31N 51°54' E 004°28'0 0.0
2016-Jan-30 11:31N 51°54' E 004°28'0 0.0
2016-Jan-30 10:31N 51°54' E 004°28'0 0.0
2016-Jan-30 09:31N 51°54' E 004°28'0 0.0
2016-Jan-30 08:31N 51°54' E 004°28'0 0.0
2016-Jan-30 07:31N 51°54' E 004°28'0 0.0
2016-Jan-30 06:31N 51°54' E 004°28'0 0.0
2016-Jan-30 05:31N 51°54' E 004°28'0 0.0
2016-Jan-30 04:31N 51°54' E 004°28'0 0.0
2016-Jan-30 03:31N 51°54' E 004°28'0 0.0
2016-Jan-30 02:31N 51°54' E 004°28'0 0.0
2016-Jan-30 01:31N 51°54' E 004°28'0 0.0
2016-Jan-30 00:31N 51°54' E 004°28'0 0.0
2016-Jan-29 23:31N 51°54' E 004°28'5 5.2
2016-Jan-29 22:34N 51°54' E 004°20'8 7.8
2016-Jan-29 21:33N 51°50' E 004°31'7 7.5
2016-Jan-29 20:34N 51°44' E 004°38'2 2.2
2016-Jan-29 19:28N 51°42' E 004°35'0 0.0
2016-Jan-29 18:31N 51°42' E 004°35'0 0.0
2016-Jan-29 17:31N 51°42' E 004°35'0 0.0
2016-Jan-29 16:31N 51°42' E 004°35'0 0.0
2016-Jan-29 15:31N 51°42' E 004°35'0 0.0
2016-Jan-29 14:31N 51°42' E 004°35'0 0.0
2016-Jan-29 13:31N 51°42' E 004°35'0 0.0
2016-Jan-29 12:16N 51°42' E 004°35'0 0.0
2016-Jan-29 10:22N 51°42' E 004°35'0 0.0
2016-Jan-29 09:33N 51°42' E 004°35'0 0.0
2016-Jan-29 07:18N 51°42' E 004°35'0 0.0
2016-Jan-29 06:33N 51°42' E 004°35'0 0.0
2016-Jan-29 05:33N 51°42' E 004°35'0 0.0
2016-Jan-29 04:30N 51°42' E 004°35'0 0.0
2016-Jan-29 03:33N 51°42' E 004°35'0 0.0
2016-Jan-29 02:33N 51°42' E 004°35'2 2.4
2016-Jan-29 01:33N 51°44' E 004°38'6 6.5
2016-Jan-29 00:34N 51°50' E 004°33'7 7.4
2016-Jan-28 23:33N 51°51' E 004°22'7 6.9
2016-Jan-28 22:33N 51°55' E 004°14'7 6.5
2016-Jan-28 21:33N 51°59' E 004°05'8 8.0
2016-Jan-28 20:34N 51°60' E 003°52'7 6.9
2016-Jan-28 19:34N 52°06' E 003°46'98 6.9
2016-Jan-28 05:21N 53°33' E 005°00'5 5.7
2016-Jan-28 04:32N 53°35' E 005°07'6 6.2
2016-Jan-28 03:33N 53°37' E 005°17'6 6.2
2016-Jan-28 02:34N 53°39' E 005°27'6 6.4
2016-Jan-28 01:34N 53°41' E 005°37'7 6.9
2016-Jan-28 00:33N 53°43' E 005°48'7 7.2
2016-Jan-27 23:33N 53°45' E 005°60'7 6.6
2016-Jan-27 22:33N 53°47' E 006°10'6 5.7
2016-Jan-27 21:33N 53°49' E 006°20'5 4.6
2016-Jan-27 20:33N 53°50' E 006°27'4 3.9
2016-Jan-27 19:33N 53°51' E 006°34'4 4.5
2016-Jan-27 18:34N 53°53' E 006°41'6 6.4
2016-Jan-27 17:33N 53°54' E 006°51'7 6.7
2016-Jan-27 16:33N 53°56' E 007°02'15 6.9
2016-Jan-27 14:20N 53°60' E 007°28'5 6.2
2016-Jan-27 13:33N 54°01' E 007°36'6 5.7
2016-Jan-27 12:33N 54°02' E 007°45'5 5.3
2016-Jan-27 11:33N 54°01' E 007°54'5 5.4
2016-Jan-27 10:33N 54°01' E 008°03'6 5.7
2016-Jan-27 09:33N 54°01' E 008°13'7 7.5
2016-Jan-27 08:34N 53°59' E 008°26'1211.6
2016-Jan-27 07:34N 53°53' E 008°42'1211.8
2016-Jan-27 06:33N 53°52' E 009°02'4 4.2
2016-Jan-27 05:33N 53°54' E 009°09'6 6.3
2016-Jan-27 04:33N 53°58' E 009°16'  
Track history (hours):
 
Tides and Currents Weather Stations Pressure Air Temp Water Temp Dewpoint Dewpoint Depression Visibility Wind Speed Wind Dir Waves Ship Positions

Berit

Last reported at 2016-Feb-06 03:26 UTC. Time now 2016-Feb-09 11:42 UTC.
Position N 55°36' E 015°19'.

Length 83 m; draft 4.5 m.

Type: Cargo ship. MMSI: 236386000.

Date/timePositionNaut miles runAvg speedWind from/ knotsBaromVisibWave heightAir tempDewpointWater temp
2016-Feb-06 03:26N 55°36' E 015°19'9 9.7
2016-Feb-06 02:33N 55°32' E 015°06'10 9.9
2016-Feb-06 01:33N 55°27' E 014°50'10 9.7
2016-Feb-06 00:33N 55°21' E 014°36'10 9.8
2016-Feb-05 23:33N 55°14' E 014°26'1010.1
2016-Feb-05 22:33N 55°06' E 014°15'10 9.7
2016-Feb-05 21:33N 55°00' E 014°01'48 9.5
2016-Feb-05 16:33N 54°44' E 012°43'10 9.6
2016-Feb-05 15:33N 54°39' E 012°29'10 9.5
2016-Feb-05 14:32N 54°32' E 012°17'9 9.1
2016-Feb-05 13:32N 54°25' E 012°08'1010.0
2016-Feb-05 12:33N 54°25' E 011°51'10 9.7
2016-Feb-05 11:33N 54°28' E 011°35'1010.2
2016-Feb-05 10:33N 54°32' E 011°19'10 9.9
2016-Feb-05 09:33N 54°35' E 011°03'30 9.8
2016-Feb-05 06:33N 54°26' E 010°15'6 5.7
2016-Feb-05 05:33N 54°22' E 010°09'3 2.9
2016-Feb-05 04:33N 54°22' E 010°04'7 6.5
2016-Feb-05 03:33N 54°22' E 009°52'8 7.7
2016-Feb-05 02:33N 54°18' E 009°41'27 6.7
2016-Feb-04 22:33N 53°56' E 009°13'5 4.7
2016-Feb-04 21:33N 53°53' E 009°07'8 8.5
2016-Feb-04 20:33N 53°50' E 008°54'1110.5
2016-Feb-04 19:33N 53°56' E 008°39'1111.5
2016-Feb-04 18:33N 53°59' E 008°20'1110.9
2016-Feb-04 17:33N 53°58' E 008°02'1111.1
2016-Feb-04 16:33N 53°55' E 007°43'1110.7
2016-Feb-04 15:33N 53°53' E 007°26'1010.1
2016-Feb-04 14:33N 53°51' E 007°09'1010.0
2016-Feb-04 13:33N 53°49' E 006°53'9 9.5
2016-Feb-04 12:33N 53°46' E 006°37'9 9.1
2016-Feb-04 11:33N 53°44' E 006°22'9 8.9
2016-Feb-04 10:33N 53°41' E 006°08'9 8.8
2016-Feb-04 09:33N 53°39' E 005°54'9 8.8
2016-Feb-04 08:33N 53°36' E 005°40'9 9.2
2016-Feb-04 07:33N 53°33' E 005°25'9 8.9
2016-Feb-04 06:33N 53°30' E 005°11'42 8.4
2016-Feb-04 01:30N 52°59' E 004°22'9 9.2
2016-Feb-04 00:33N 52°51' E 004°16'10 9.6
2016-Feb-03 23:33N 52°44' E 004°07'10 9.6
2016-Feb-03 22:33N 52°35' E 003°59'17 8.7
2016-Feb-03 20:33N 52°18' E 003°52'7 7.4
2016-Feb-03 19:33N 52°11' E 003°54'7 7.5
2016-Feb-03 18:33N 52°04' E 003°55'5 4.8
2016-Feb-03 17:34N 52°00' E 004°01'1010.2
2016-Feb-03 16:34N 51°55' E 004°15'8 7.4
2016-Feb-03 15:31N 51°53' E 004°27'0 0.0
2016-Feb-03 14:31N 51°53' E 004°27'0 0.0
2016-Feb-03 13:31N 51°53' E 004°27'0 0.0
2016-Feb-03 12:31N 51°53' E 004°27'0 0.0
2016-Feb-03 11:31N 51°53' E 004°27'0 0.0
2016-Feb-03 10:31N 51°53' E 004°27'0 0.0
2016-Feb-03 09:31N 51°53' E 004°27'0 0.0
2016-Feb-03 08:31N 51°53' E 004°27'0 0.0
2016-Feb-03 07:31N 51°53' E 004°27'0 0.0
2016-Feb-03 06:31N 51°53' E 004°27'0 0.0
2016-Feb-03 05:31N 51°53' E 004°27'0 0.0
2016-Feb-03 04:31N 51°53' E 004°27'0 0.0
2016-Feb-03 03:31N 51°53' E 004°27'0 0.0
2016-Feb-03 02:31N 51°53' E 004°27'0 0.0
2016-Feb-03 01:31N 51°53' E 004°27'0 0.0
2016-Feb-03 00:31N 51°53' E 004°27'0 0.0
2016-Feb-02 23:31N 51°53' E 004°27'0 0.0
2016-Feb-02 22:31N 51°53' E 004°27'0 0.0
2016-Feb-02 21:31N 51°53' E 004°27'0 0.0
2016-Feb-02 20:31N 51°53' E 004°27'0 0.0
2016-Feb-02 19:31N 51°53' E 004°27'0 0.0
2016-Feb-02 18:28N 51°53' E 004°27'0 0.0
2016-Feb-02 17:31N 51°53' E 004°27'0 0.0
2016-Feb-02 16:31N 51°53' E 004°27'0 0.0
2016-Feb-02 15:28N 51°53' E 004°27'0 0.0
2016-Feb-02 14:31N 51°53' E 004°27'0 0.0
2016-Feb-02 13:31N 51°53' E 004°27'0 0.0
2016-Feb-02 12:31N 51°53' E 004°27'0 0.0
2016-Feb-02 11:31N 51°53' E 004°27'0 0.0
2016-Feb-02 10:31N 51°53' E 004°27'0 0.0
2016-Feb-02 09:31N 51°53' E 004°27'0 0.0
2016-Feb-02 08:31N 51°53' E 004°27'0 0.0
2016-Feb-02 07:31N 51°53' E 004°27'0 0.0
2016-Feb-02 06:28N 51°53' E 004°27'1 0.9
2016-Feb-02 05:33N 51°54' E 004°26'1 1.2
2016-Feb-02 04:33N 51°54' E 004°28'0 0.0
2016-Feb-02 03:33N 51°54' E 004°28'0 0.0
2016-Feb-02 02:33N 51°54' E 004°28'0 0.0
2016-Feb-02 01:33N 51°54' E 004°28'0 0.0
2016-Feb-02 00:33N 51°54' E 004°28'0 0.0
2016-Feb-01 23:33N 51°54' E 004°28'0 0.0
2016-Feb-01 22:33N 51°54' E 004°28'0 0.0
2016-Feb-01 21:33N 51°54' E 004°28'0 0.0
2016-Feb-01 20:30N 51°54' E 004°28'0 0.0
2016-Feb-01 19:33N 51°54' E 004°28'0 0.0
2016-Feb-01 18:33N 51°54' E 004°28'0 0.0
2016-Feb-01 17:33N 51°54' E 004°28'0 0.0
2016-Feb-01 16:33N 51°54' E 004°28'0 0.0
2016-Feb-01 15:33N 51°54' E 004°28'0 0.0
2016-Feb-01 14:33N 51°54' E 004°28'0 0.0
2016-Feb-01 13:33N 51°54' E 004°28'0 0.0
2016-Feb-01 12:33N 51°54' E 004°28'0 0.0
2016-Feb-01 11:33N 51°54' E 004°28'0 0.0
2016-Feb-01 10:13N 51°54' E 004°28'0 0.0
2016-Feb-01 09:31N 51°54' E 004°28'0 0.0
2016-Feb-01 08:31N 51°54' E 004°28'0 0.0
2016-Feb-01 07:28N 51°54' E 004°28'0 0.0
2016-Feb-01 06:31N 51°54' E 004°28'0 0.0
2016-Feb-01 05:31N 51°54' E 004°28'0 0.0
2016-Feb-01 04:31N 51°54' E 004°28'0 0.0
2016-Feb-01 03:31N 51°54' E 004°28'0 0.0
2016-Feb-01 02:31N 51°54' E 004°28'0 0.0
2016-Feb-01 01:31N 51°54' E 004°28'0 0.0
2016-Feb-01 00:31N 51°54' E 004°28'0 0.0
2016-Jan-31 23:31N 51°54' E 004°28'0 0.0
2016-Jan-31 22:31N 51°54' E 004°28'0 0.0
2016-Jan-31 21:31N 51°54' E 004°28'0 0.0
2016-Jan-31 20:31N 51°54' E 004°28'0 0.0
2016-Jan-31 19:31N 51°54' E 004°28'0 0.0
2016-Jan-31 18:31N 51°54' E 004°28'0 0.0
2016-Jan-31 17:31N 51°54' E 004°28'0 0.0
2016-Jan-31 16:31N 51°54' E 004°28'0 0.0
2016-Jan-31 15:31N 51°54' E 004°28'0 0.0
2016-Jan-31 14:31N 51°54' E 004°28'0 0.0
2016-Jan-31 13:31N 51°54' E 004°28'0 0.0
2016-Jan-31 12:28N 51°54' E 004°28'0 0.0
2016-Jan-31 11:31N 51°54' E 004°28'0 0.0
2016-Jan-31 10:31N 51°54' E 004°28'0 0.0
2016-Jan-31 09:31N 51°54' E 004°28'0 0.0
2016-Jan-31 08:31N 51°54' E 004°28'0 0.0
2016-Jan-31 07:31N 51°54' E 004°28'0 0.0
2016-Jan-31 06:31N 51°54' E 004°28'0 0.0
2016-Jan-31 05:31N 51°54' E 004°28'0 0.0
2016-Jan-31 04:31N 51°54' E 004°28'0 0.0
2016-Jan-31 03:31N 51°54' E 004°28'0 0.0
2016-Jan-31 02:31N 51°54' E 004°28'0 0.0
2016-Jan-31 01:31N 51°54' E 004°28'0 0.0
2016-Jan-31 00:31N 51°54' E 004°28'0 0.0
2016-Jan-30 23:31N 51°54' E 004°28'0 0.0
2016-Jan-30 22:31N 51°54' E 004°28'0 0.0
2016-Jan-30 21:31N 51°54' E 004°28'0 0.0
2016-Jan-30 20:31N 51°54' E 004°28'0 0.0
2016-Jan-30 19:31N 51°54' E 004°28'0 0.0
2016-Jan-30 18:31N 51°54' E 004°28'0 0.0
2016-Jan-30 17:31N 51°54' E 004°28'0 0.0
2016-Jan-30 16:31N 51°54' E 004°28'0 0.0
2016-Jan-30 15:31N 51°54' E 004°28'0 0.0
2016-Jan-30 14:31N 51°54' E 004°28'0 0.0
2016-Jan-30 13:31N 51°54' E 004°28'0 0.0
2016-Jan-30 12:31N 51°54' E 004°28'0 0.0
2016-Jan-30 11:31N 51°54' E 004°28'0 0.0
2016-Jan-30 10:31N 51°54' E 004°28'0 0.0
2016-Jan-30 09:31N 51°54' E 004°28'0 0.0
2016-Jan-30 08:31N 51°54' E 004°28'0 0.0
2016-Jan-30 07:31N 51°54' E 004°28'0 0.0
2016-Jan-30 06:31N 51°54' E 004°28'0 0.0
2016-Jan-30 05:31N 51°54' E 004°28'0 0.0
2016-Jan-30 04:31N 51°54' E 004°28'0 0.0
2016-Jan-30 03:31N 51°54' E 004°28'0 0.0
2016-Jan-30 02:31N 51°54' E 004°28'0 0.0
2016-Jan-30 01:31N 51°54' E 004°28'0 0.0
2016-Jan-30 00:31N 51°54' E 004°28'0 0.0
2016-Jan-29 23:31N 51°54' E 004°28'5 5.2
2016-Jan-29 22:34N 51°54' E 004°20'8 7.8
2016-Jan-29 21:33N 51°50' E 004°31'7 7.5
2016-Jan-29 20:34N 51°44' E 004°38'2 2.2
2016-Jan-29 19:28N 51°42' E 004°35'0 0.0
2016-Jan-29 18:31N 51°42' E 004°35'0 0.0
2016-Jan-29 17:31N 51°42' E 004°35'0 0.0
2016-Jan-29 16:31N 51°42' E 004°35'0 0.0
2016-Jan-29 15:31N 51°42' E 004°35'0 0.0
2016-Jan-29 14:31N 51°42' E 004°35'0 0.0
2016-Jan-29 13:31N 51°42' E 004°35'0 0.0
2016-Jan-29 12:16N 51°42' E 004°35'0 0.0
2016-Jan-29 10:22N 51°42' E 004°35'0 0.0
2016-Jan-29 09:33N 51°42' E 004°35'0 0.0
2016-Jan-29 07:18N 51°42' E 004°35'0 0.0
2016-Jan-29 06:33N 51°42' E 004°35'0 0.0
2016-Jan-29 05:33N 51°42' E 004°35'0 0.0
2016-Jan-29 04:30N 51°42' E 004°35'0 0.0
2016-Jan-29 03:33N 51°42' E 004°35'0 0.0
2016-Jan-29 02:33N 51°42' E 004°35'2 2.4
2016-Jan-29 01:33N 51°44' E 004°38'6 6.5
2016-Jan-29 00:34N 51°50' E 004°33'7 7.4
2016-Jan-28 23:33N 51°51' E 004°22'7 6.9
2016-Jan-28 22:33N 51°55' E 004°14'7 6.5
2016-Jan-28 21:33N 51°59' E 004°05'8 8.0
2016-Jan-28 20:34N 51°60' E 003°52'7 6.9
2016-Jan-28 19:34N 52°06' E 003°46'98 6.9
2016-Jan-28 05:21N 53°33' E 005°00'5 5.7
2016-Jan-28 04:32N 53°35' E 005°07'6 6.2
2016-Jan-28 03:33N 53°37' E 005°17'6 6.2
2016-Jan-28 02:34N 53°39' E 005°27'6 6.4
2016-Jan-28 01:34N 53°41' E 005°37'7 6.9
2016-Jan-28 00:33N 53°43' E 005°48'7 7.2
2016-Jan-27 23:33N 53°45' E 005°60'7 6.6
2016-Jan-27 22:33N 53°47' E 006°10'6 5.7
2016-Jan-27 21:33N 53°49' E 006°20'5 4.6
2016-Jan-27 20:33N 53°50' E 006°27'4 3.9
2016-Jan-27 19:33N 53°51' E 006°34'4 4.5
2016-Jan-27 18:34N 53°53' E 006°41'6 6.4
2016-Jan-27 17:33N 53°54' E 006°51'7 6.7
2016-Jan-27 16:33N 53°56' E 007°02'15 6.9
2016-Jan-27 14:20N 53°60' E 007°28'5 6.2
2016-Jan-27 13:33N 54°01' E 007°36'6 5.7
2016-Jan-27 12:33N 54°02' E 007°45'5 5.3
2016-Jan-27 11:33N 54°01' E 007°54'5 5.4
2016-Jan-27 10:33N 54°01' E 008°03'6 5.7
2016-Jan-27 09:33N 54°01' E 008°13'7 7.5
2016-Jan-27 08:34N 53°59' E 008°26'1211.6
2016-Jan-27 07:34N 53°53' E 008°42'1211.8
2016-Jan-27 06:33N 53°52' E 009°02'4 4.2
2016-Jan-27 05:33N 53°54' E 009°09'6 6.3
2016-Jan-27 04:33N 53°58' E 009°16'  

Dump ship's entire track history